Time;durP1;ratioP1;P1;durP2;ratioP2;P2;SDS_P1;SDS_P2;PMS_P1;PMS_P2;Temp;Humidity;BMP_temperature;BMP_pressure;BME280_temperature;BME280_humidity;BME280_pressure;Samples;Min_cycle;Max_cycle;Signal;HPM_P1;HPM_P2
2021/05/08 00:00:42;;;;;;;5.10;4.70;;;7.50;99.90;;;;;;5073155;28;20247;-56
2021/05/08 00:03:07;;;;;;;6.27;5.77;;;7.40;99.90;;;;;;5073415;28;20405;-56
2021/05/08 00:05:33;;;;;;;8.10;5.87;;;7.40;99.90;;;;;;5073175;28;20173;-56
2021/05/08 00:07:58;;;;;;;9.37;6.63;;;7.30;99.90;;;;;;5072976;28;20213;-56
2021/05/08 00:10:24;;;;;;;5.67;5.20;;;7.30;99.90;;;;;;5073176;28;20260;-54
2021/05/08 00:12:50;;;;;;;8.13;7.33;;;7.20;99.90;;;;;;5073044;28;20173;-55
2021/05/08 00:15:16;;;;;;;7.30;6.53;;;7.30;99.90;;;;;;5073273;28;20169;-56
2021/05/08 00:17:42;;;;;;;6.13;5.53;;;7.30;99.90;;;;;;5072837;28;20208;-55
2021/05/08 00:20:11;;;;;;;7.53;6.83;;;7.30;99.90;;;;;;5072936;28;20433;-53
2021/05/08 00:22:37;;;;;;;8.00;7.20;;;7.30;99.90;;;;;;5072934;28;20408;-52
2021/05/08 00:25:05;;;;;;;6.97;6.27;;;7.30;99.90;;;;;;5072997;28;20778;-55
2021/05/08 00:27:30;;;;;;;6.60;6.00;;;7.30;99.90;;;;;;5073043;28;20455;-57
2021/05/08 00:29:56;;;;;;;7.63;7.00;;;7.30;99.90;;;;;;5072878;28;20404;-55
2021/05/08 00:32:22;;;;;;;7.30;6.60;;;7.30;99.90;;;;;;5072876;28;20315;-56
2021/05/08 00:34:47;;;;;;;8.73;7.93;;;7.20;99.90;;;;;;5073113;28;20180;-55
2021/05/08 00:37:13;;;;;;;7.53;6.70;;;7.10;99.90;;;;;;5054692;28;20230;-56
2021/05/08 00:39:38;;;;;;;7.33;6.67;;;7.00;99.90;;;;;;5072834;28;20541;-56
2021/05/08 00:42:04;;;;;;;7.30;6.70;;;7.00;99.90;;;;;;5073069;28;20511;-56
2021/05/08 00:44:30;;;;;;;6.57;5.83;;;7.00;99.90;;;;;;5073116;28;20653;-54
2021/05/08 00:46:56;;;;;;;6.60;6.10;;;6.90;99.90;;;;;;5072336;28;20194;-55
2021/05/08 00:49:25;;;;;;;5.93;5.43;;;6.80;99.90;;;;;;5072705;28;20427;-55
2021/05/08 00:51:51;;;;;;;6.47;5.97;;;6.80;99.90;;;;;;5075786;28;20450;-54
2021/05/08 00:54:16;;;;;;;6.27;5.70;;;6.80;99.90;;;;;;5076529;28;20451;-50
2021/05/08 00:56:42;;;;;;;8.00;6.67;;;6.80;99.90;;;;;;5076673;28;20193;-51
2021/05/08 00:59:08;;;;;;;8.23;6.13;;;6.70;99.90;;;;;;5076313;28;20202;-56
2021/05/08 01:01:34;;;;;;;6.40;5.80;;;6.70;99.90;;;;;;5076312;28;20409;-54
2021/05/08 01:03:59;;;;;;;6.10;5.60;;;6.70;99.90;;;;;;5076461;28;20174;-56
2021/05/08 01:06:26;;;;;;;5.97;5.37;;;6.70;99.90;;;;;;5076201;28;20204;-54
2021/05/08 01:08:52;;;;;;;7.60;6.87;;;6.70;99.90;;;;;;5076704;28;20162;-53
2021/05/08 01:11:18;;;;;;;7.10;6.47;;;6.60;99.90;;;;;;5076347;28;20466;-53
2021/05/08 01:13:44;;;;;;;7.30;6.60;;;6.60;99.90;;;;;;5076197;28;20412;-55
2021/05/08 01:16:09;;;;;;;7.67;6.73;;;6.50;99.90;;;;;;5076096;28;20174;-56
2021/05/08 01:18:35;;;;;;;7.70;7.00;;;6.50;99.90;;;;;;5075946;28;20228;-55
2021/05/08 01:21:02;;;;;;;7.10;6.37;;;6.40;99.90;;;;;;5076343;28;20162;-55
2021/05/08 01:23:28;;;;;;;7.10;6.10;;;6.40;99.90;;;;;;5076246;28;20165;-55
2021/05/08 01:25:54;;;;;;;7.40;6.80;;;6.40;99.90;;;;;;5075806;28;20812;-55
2021/05/08 01:28:19;;;;;;;6.97;6.10;;;6.40;99.90;;;;;;5076112;28;20436;-56
2021/05/08 01:30:46;;;;;;;6.70;6.10;;;6.40;99.90;;;;;;5075885;28;20174;-55
2021/05/08 01:33:11;;;;;;;6.67;6.07;;;6.40;99.90;;;;;;5076071;28;20249;-55
2021/05/08 01:35:37;;;;;;;7.60;7.00;;;6.40;99.90;;;;;;5075839;28;20436;-55
2021/05/08 01:38:03;;;;;;;7.13;6.53;;;6.40;99.90;;;;;;5076653;28;20553;-56
2021/05/08 01:40:32;;;;;;;6.80;6.20;;;6.30;99.90;;;;;;5075722;28;20166;-54
2021/05/08 01:42:58;;;;;;;7.33;6.60;;;6.30;99.90;;;;;;5075256;28;20492;-54
2021/05/08 01:45:24;;;;;;;6.90;6.30;;;6.20;99.90;;;;;;5075672;28;20483;-55
2021/05/08 01:47:52;;;;;;;7.00;6.37;;;6.20;99.90;;;;;;5075289;28;20688;-56
2021/05/08 01:50:21;;;;;;;8.10;6.67;;;6.20;99.90;;;;;;5075760;28;20412;-55
2021/05/08 01:52:48;;;;;;;11.70;7.00;;;6.20;99.90;;;;;;5075503;28;20423;-53
2021/05/08 01:55:20;;;;;;;7.93;7.20;;;6.10;99.90;;;;;;5075423;28;20932;-56
2021/05/08 01:57:50;;;;;;;8.33;7.53;;;6.00;99.90;;;;;;5075320;28;20451;-56
2021/05/08 02:00:31;;;;;;;7.67;7.00;;;5.90;99.90;;;;;;5075340;28;20405;-55
2021/05/08 02:02:57;;;;;;;7.23;6.63;;;5.80;99.90;;;;;;5074518;28;20802;-53
2021/05/08 02:05:27;;;;;;;9.63;6.67;;;5.70;99.90;;;;;;5075562;28;20409;-55
2021/05/08 02:07:53;;;;;;;7.83;6.83;;;5.60;99.90;;;;;;5078929;23;20492;-57
2021/05/08 02:10:19;;;;;;;8.40;7.60;;;5.70;99.90;;;;;;5055226;28;20393;-57
2021/05/08 02:12:45;;;;;;;9.73;7.63;;;5.70;99.90;;;;;;5055037;28;20171;-57
2021/05/08 02:15:14;;;;;;;8.90;7.63;;;5.70;99.90;;;;;;5037132;28;20402;-57
2021/05/08 02:17:40;;;;;;;8.70;7.50;;;5.70;99.90;;;;;;5054705;28;20579;-55
2021/05/08 02:20:11;;;;;;;8.87;8.03;;;5.70;99.90;;;;;;5054957;28;21001;-57
2021/05/08 02:22:38;;;;;;;10.10;7.90;;;5.80;99.90;;;;;;5054870;28;20874;-54
2021/05/08 02:25:05;;;;;;;8.50;7.70;;;5.80;99.90;;;;;;5054628;28;20409;-57
2021/05/08 02:27:32;;;;;;;9.10;7.77;;;5.70;99.90;;;;;;5053221;28;22000;-54
2021/05/08 02:29:58;;;;;;;8.87;8.07;;;5.70;99.90;;;;;;5027971;28;20499;-58
2021/05/08 02:32:23;;;;;;;8.77;7.87;;;5.60;99.90;;;;;;5054518;28;20413;-56
2021/05/08 02:34:49;;;;;;;7.87;7.17;;;5.50;99.90;;;;;;5054729;28;20166;-57
2021/05/08 02:37:15;;;;;;;9.63;8.73;;;5.60;99.90;;;;;;5054428;28;20194;-56
2021/05/08 02:39:41;;;;;;;7.47;6.77;;;5.70;99.90;;;;;;5054925;28;20162;-53
2021/05/08 02:42:06;;;;;;;8.50;7.70;;;5.60;99.90;;;;;;5055035;28;20170;-55
2021/05/08 02:44:32;;;;;;;8.00;7.40;;;5.70;99.90;;;;;;5055163;28;20178;-57
2021/05/08 02:46:57;;;;;;;8.03;7.30;;;5.70;99.90;;;;;;5054916;28;20193;-57
2021/05/08 02:49:23;;;;;;;8.53;7.70;;;5.70;99.90;;;;;;5054760;28;20170;-54
2021/05/08 02:51:48;;;;;;;8.73;7.93;;;5.70;99.90;;;;;;5055036;28;20625;-54
2021/05/08 02:54:14;;;;;;;8.43;7.63;;;5.70;99.90;;;;;;5056089;28;20167;-55
2021/05/08 02:56:40;;;;;;;8.60;7.87;;;5.70;99.90;;;;;;5037725;28;20214;-58
2021/05/08 02:59:05;;;;;;;8.70;7.80;;;5.70;99.90;;;;;;5055123;28;20222;-55
2021/05/08 03:01:31;;;;;;;8.40;7.70;;;5.70;99.90;;;;;;5054699;28;20590;-55
2021/05/08 03:03:56;;;;;;;8.97;8.10;;;5.60;99.90;;;;;;5054971;28;20167;-55
2021/05/08 03:06:22;;;;;;;7.50;6.70;;;5.70;99.90;;;;;;5036569;28;20162;-54
2021/05/08 03:08:47;;;;;;;8.40;7.70;;;5.80;99.90;;;;;;5054442;28;20182;-54
2021/05/08 03:11:13;;;;;;;9.17;8.27;;;5.80;99.90;;;;;;5054533;28;20257;-56
2021/05/08 03:13:39;;;;;;;8.70;7.30;;;5.80;99.90;;;;;;5054205;28;20200;-57
2021/05/08 03:16:05;;;;;;;8.43;7.13;;;5.70;99.90;;;;;;5054373;28;20608;-56
2021/05/08 03:18:30;;;;;;;9.03;7.87;;;5.60;99.90;;;;;;5054408;28;20201;-54
2021/05/08 03:20:56;;;;;;;8.30;7.60;;;5.50;99.90;;;;;;5054278;28;20697;-57
2021/05/08 03:23:21;;;;;;;8.10;7.30;;;5.50;99.90;;;;;;5054644;28;20167;-56
2021/05/08 03:25:47;;;;;;;7.00;6.30;;;5.50;99.90;;;;;;5055464;28;20216;-56
2021/05/08 03:28:13;;;;;;;8.00;7.30;;;5.50;99.90;;;;;;5054176;28;20202;-53
2021/05/08 03:30:38;;;;;;;6.80;6.10;;;5.50;99.90;;;;;;5054733;28;20181;-57
2021/05/08 03:33:04;;;;;;;7.63;6.90;;;5.50;99.90;;;;;;5053916;28;20624;-54
2021/05/08 03:35:30;;;;;;;6.23;5.60;;;5.40;99.90;;;;;;5054418;28;20203;-56
2021/05/08 03:37:55;;;;;;;6.63;6.10;;;5.50;99.90;;;;;;5053818;28;20194;-54
2021/05/08 03:40:21;;;;;;;8.53;7.70;;;5.40;99.90;;;;;;5054168;28;20643;-57
2021/05/08 03:42:47;;;;;;;7.20;6.60;;;5.40;99.90;;;;;;5053511;28;20635;-54
2021/05/08 03:45:13;;;;;;;6.70;6.10;;;5.40;99.90;;;;;;5054010;28;20163;-56
2021/05/08 03:47:38;;;;;;;7.10;6.50;;;5.40;99.90;;;;;;5053623;28;20256;-58
2021/05/08 03:50:04;;;;;;;8.23;7.40;;;5.40;99.90;;;;;;5053840;28;20405;-58
2021/05/08 03:52:32;;;;;;;6.03;5.43;;;5.30;99.90;;;;;;5053999;28;20174;-57
2021/05/08 03:54:58;;;;;;;8.00;5.90;;;5.20;99.90;;;;;;5054116;28;20898;-58
2021/05/08 03:57:23;;;;;;;8.10;6.40;;;5.30;99.90;;;;;;5053712;28;20436;-58
2021/05/08 03:59:49;;;;;;;8.30;7.33;;;5.30;99.90;;;;;;5053795;28;20416;-58
2021/05/08 04:02:15;;;;;;;10.23;6.47;;;5.30;99.90;;;;;;5035107;28;20189;-57
2021/05/08 04:04:40;;;;;;;7.73;7.03;;;5.30;99.90;;;;;;5053109;28;20167;-58
2021/05/08 04:07:06;;;;;;;6.53;5.83;;;5.30;99.90;;;;;;5053372;28;20718;-56
2021/05/08 04:09:31;;;;;;;7.53;5.90;;;5.30;99.90;;;;;;5035377;28;20240;-57
2021/05/08 04:11:57;;;;;;;5.87;5.37;;;5.20;99.90;;;;;;5052834;28;20628;-59
2021/05/08 04:14:23;;;;;;;7.30;6.07;;;5.10;99.90;;;;;;5053398;28;20206;-58
2021/05/08 04:16:48;;;;;;;6.40;5.80;;;5.20;99.90;;;;;;5053403;28;20425;-58
2021/05/08 04:19:14;;;;;;;6.17;5.67;;;5.30;99.90;;;;;;5053356;28;20191;-55
2021/05/08 04:21:40;;;;;;;6.10;5.50;;;5.30;99.90;;;;;;5053664;28;20167;-58
2021/05/08 04:24:06;;;;;;;7.10;6.00;;;5.20;99.90;;;;;;5053798;28;20681;-56
2021/05/08 04:26:31;;;;;;;7.33;6.07;;;5.20;99.90;;;;;;5055660;28;20167;-59
2021/05/08 04:28:57;;;;;;;9.53;8.63;;;5.30;99.90;;;;;;5057515;28;20416;-57
2021/05/08 04:31:23;;;;;;;7.83;7.00;;;5.30;99.90;;;;;;5057940;28;20173;-57
2021/05/08 04:33:49;;;;;;;7.70;6.57;;;5.40;99.90;;;;;;5057900;28;20171;-57
2021/05/08 04:36:14;;;;;;;6.87;6.27;;;5.50;99.90;;;;;;5057682;28;20650;-58
2021/05/08 04:38:41;;;;;;;7.83;7.03;;;5.50;99.90;;;;;;5057831;28;20535;-58
2021/05/08 04:41:07;;;;;;;8.00;7.20;;;5.50;99.90;;;;;;5039707;28;21005;-56
2021/05/08 04:43:33;;;;;;;7.80;6.43;;;5.60;99.90;;;;;;5057757;28;20409;-55
2021/05/08 04:45:59;;;;;;;7.90;7.10;;;5.50;99.90;;;;;;5057184;28;20512;-53
2021/05/08 04:48:30;;;;;;;7.27;6.57;;;5.50;99.90;;;;;;5056978;28;20190;-58
2021/05/08 04:50:56;;;;;;;5.97;5.47;;;5.50;99.90;;;;;;5057467;28;20167;-58
2021/05/08 04:53:22;;;;;;;6.97;6.27;;;5.50;99.90;;;;;;5057345;28;20400;-59
2021/05/08 04:55:48;;;;;;;7.17;6.23;;;5.50;99.90;;;;;;5057386;28;20666;-58
2021/05/08 04:58:14;;;;;;;6.13;5.60;;;5.60;99.90;;;;;;5057263;28;20362;-56
2021/05/08 05:00:40;;;;;;;8.27;6.30;;;5.70;99.90;;;;;;5057097;28;20928;-59
2021/05/08 05:03:06;;;;;;;5.90;5.40;;;5.80;99.90;;;;;;5056707;28;20479;-58
2021/05/08 05:05:31;;;;;;;7.30;6.03;;;5.80;99.90;;;;;;5057124;28;20401;-55
2021/05/08 05:07:57;;;;;;;6.27;5.50;;;5.80;99.90;;;;;;5056762;28;20949;-55
2021/05/08 05:10:23;;;;;;;6.57;6.07;;;6.00;99.90;;;;;;5056794;28;20513;-59
2021/05/08 05:12:48;;;;;;;9.93;6.80;;;6.00;99.90;;;;;;5056998;28;20639;-58
2021/05/08 05:15:19;;;;;;;7.07;6.27;;;6.10;99.90;;;;;;5056739;28;20654;-57
2021/05/08 05:17:46;;;;;;;6.80;6.20;;;6.20;99.90;;;;;;5056456;28;20863;-56
2021/05/08 05:20:12;;;;;;;6.83;6.13;;;6.20;99.90;;;;;;5056301;28;20404;-57
2021/05/08 05:22:38;;;;;;;5.47;5.00;;;6.20;99.90;;;;;;5047790;28;20992;-57
2021/05/08 05:25:05;;;;;;;6.57;5.97;;;6.30;99.90;;;;;;5036938;28;20406;-58
2021/05/08 05:27:31;;;;;;;6.03;5.43;;;6.40;99.90;;;;;;5036402;28;20422;-55
2021/05/08 05:29:57;;;;;;;7.63;5.90;;;6.60;99.90;;;;;;5056062;28;20428;-56
2021/05/08 05:32:23;;;;;;;8.00;6.10;;;6.80;99.90;;;;;;5038380;28;20412;-54
2021/05/08 05:34:48;;;;;;;8.90;6.90;;;6.90;99.90;;;;;;5056804;28;20178;-54
2021/05/08 05:37:14;;;;;;;5.80;5.30;;;7.10;99.90;;;;;;5055516;28;20479;-55
2021/05/08 05:39:40;;;;;;;6.50;5.90;;;7.30;99.90;;;;;;5056444;28;20254;-51
2021/05/08 05:42:06;;;;;;;6.07;5.47;;;7.40;99.90;;;;;;5056586;28;20830;-54
2021/05/08 05:44:31;;;;;;;6.17;5.67;;;7.50;99.90;;;;;;5057513;28;20163;-54
2021/05/08 05:46:57;;;;;;;6.47;5.80;;;7.70;99.90;;;;;;5057055;28;20244;-54
2021/05/08 05:49:22;;;;;;;6.73;6.13;;;7.80;99.90;;;;;;5056237;28;20639;-55
2021/05/08 05:51:48;;;;;;;6.73;5.90;;;7.90;99.90;;;;;;5057088;28;20189;-54
2021/05/08 05:54:14;;;;;;;6.43;5.83;;;7.90;99.90;;;;;;5056943;28;20166;-55
2021/05/08 05:56:39;;;;;;;6.50;6.00;;;8.00;99.90;;;;;;5038932;28;20190;-54
2021/05/08 05:59:05;;;;;;;6.40;5.30;;;8.00;99.90;;;;;;5057312;28;20194;-56
2021/05/08 06:01:30;;;;;;;5.30;4.90;;;8.30;99.90;;;;;;5056250;28;20174;-55
2021/05/08 06:03:56;;;;;;;5.70;5.20;;;8.40;99.90;;;;;;5056178;28;20159;-57
2021/05/08 06:06:22;;;;;;;6.00;5.43;;;8.50;99.90;;;;;;5055985;28;20246;-53
2021/05/08 06:08:47;;;;;;;6.10;5.53;;;8.60;99.90;;;;;;5056536;28;20186;-56
2021/05/08 06:11:13;;;;;;;6.10;5.53;;;8.70;99.90;;;;;;5056225;28;20177;-56
2021/05/08 06:17:10;;;;;;;6.30;5.80;;;8.90;99.90;;;;;;5824473;23;20219;-53
2021/05/08 06:19:35;;;;;;;5.90;5.40;;;8.80;99.90;;;;;;5070666;28;20488;-55
2021/05/08 06:22:01;;;;;;;6.27;5.70;;;9.00;99.90;;;;;;5076656;28;20983;-53
2021/05/08 06:24:26;;;;;;;5.80;5.30;;;9.20;99.90;;;;;;5076174;28;20185;-53
2021/05/08 06:26:52;;;;;;;5.90;5.40;;;9.40;99.90;;;;;;5075747;28;20278;-53
2021/05/08 06:29:17;;;;;;;6.80;5.67;;;9.60;99.90;;;;;;5075895;28;20160;-55
2021/05/08 06:31:43;;;;;;;7.20;5.63;;;9.70;99.90;;;;;;5089120;22;20225;-52
2021/05/08 06:34:09;;;;;;;6.10;5.43;;;9.80;99.90;;;;;;5056266;28;20297;-54
2021/05/08 06:36:34;;;;;;;5.87;5.37;;;10.00;99.90;;;;;;5075097;28;20169;-54
2021/05/08 06:39:00;;;;;;;5.97;5.37;;;10.10;99.90;;;;;;5074028;28;20287;-51
2021/05/08 06:41:25;;;;;;;5.67;5.17;;;10.20;99.90;;;;;;5074452;28;20714;-54
2021/05/08 06:43:51;;;;;;;6.27;5.67;;;10.30;99.90;;;;;;5074574;28;20555;-53
2021/05/08 06:46:17;;;;;;;6.13;5.60;;;10.40;99.90;;;;;;5074437;28;20243;-54
2021/05/08 06:48:42;;;;;;;6.50;5.73;;;10.30;99.90;;;;;;5074247;28;20177;-51
2021/05/08 06:51:08;;;;;;;7.10;5.67;;;10.30;99.90;;;;;;5074390;28;20437;-52
2021/05/08 06:53:36;;;;;;;8.70;5.03;;;10.50;99.90;;;;;;5074359;28;20239;-56
2021/05/08 06:56:03;;;;;;;7.77;5.27;;;10.70;99.90;;;;;;5074773;28;20176;-57
2021/05/08 06:58:28;;;;;;;5.20;4.70;;;10.50;99.90;;;;;;5074616;28;20527;-52
2021/05/08 07:00:54;;;;;;;5.60;5.10;;;10.50;99.90;;;;;;5074324;28;20504;-55
2021/05/08 07:03:20;;;;;;;5.93;5.43;;;10.70;99.90;;;;;;5074868;28;20184;-54
2021/05/08 07:05:46;;;;;;;5.30;4.90;;;10.90;99.90;;;;;;5056353;28;20201;-55
2021/05/08 07:08:12;;;;;;;5.30;4.67;;;11.10;99.10;;;;;;5073813;28;20249;-52
2021/05/08 07:10:48;;;;;;;4.80;3.63;;;11.00;99.00;;;;;;5074149;28;20431;-54
2021/05/08 07:13:14;;;;;;;7.90;4.00;;;11.00;98.50;;;;;;5074181;28;20403;-56
2021/05/08 07:15:40;;;;;;;4.00;3.60;;;11.00;98.40;;;;;;5074168;28;20507;-52
2021/05/08 07:18:07;;;;;;;3.50;3.20;;;11.00;98.40;;;;;;5073769;28;20542;-54
2021/05/08 07:20:34;;;;;;;5.47;4.00;;;11.20;98.40;;;;;;5073918;28;20182;-54
2021/05/08 07:23:00;;;;;;;3.40;3.10;;;11.40;98.30;;;;;;5073675;28;20402;-53
2021/05/08 07:25:27;;;;;;;4.57;4.13;;;11.70;97.80;;;;;;5068795;28;20411;-53
2021/05/08 07:27:52;;;;;;;5.23;4.73;;;11.90;97.20;;;;;;5072345;28;20420;-54
2021/05/08 07:30:19;;;;;;;4.83;4.43;;;12.00;97.10;;;;;;5066600;28;20500;-52
2021/05/08 07:32:44;;;;;;;4.63;4.23;;;12.10;96.70;;;;;;5053448;28;20253;-55
2021/05/08 07:35:11;;;;;;;5.63;5.03;;;12.20;96.70;;;;;;5067444;28;20841;-54
2021/05/08 07:37:36;;;;;;;6.23;4.30;;;12.50;96.60;;;;;;5073170;28;20178;-55
2021/05/08 07:40:03;;;;;;;3.57;3.27;;;12.60;96.10;;;;;;5073408;28;20862;-54
2021/05/08 07:42:28;;;;;;;6.97;3.73;;;12.70;96.20;;;;;;5073288;28;20173;-55
2021/05/08 07:44:54;;;;;;;3.60;2.70;;;12.80;96.60;;;;;;5070275;28;20768;-55
2021/05/08 07:47:19;;;;;;;4.73;3.77;;;12.80;96.60;;;;;;5059721;28;20171;-55
2021/05/08 07:49:45;;;;;;;3.80;3.30;;;13.10;96.40;;;;;;5053221;28;20167;-54
2021/05/08 07:52:11;;;;;;;3.97;3.57;;;13.20;96.50;;;;;;5052934;28;20188;-54
2021/05/08 07:54:37;;;;;;;3.83;3.30;;;13.20;96.10;;;;;;5052401;28;20308;-54
2021/05/08 07:57:03;;;;;;;3.77;3.47;;;13.00;95.80;;;;;;5052135;28;20451;-56
2021/05/08 07:59:29;;;;;;;3.73;3.43;;;13.20;96.10;;;;;;5071625;28;20608;-55
2021/05/08 08:01:55;;;;;;;3.97;3.10;;;13.30;96.00;;;;;;5072485;28;20424;-52
2021/05/08 08:04:20;;;;;;;3.30;3.03;;;13.60;95.60;;;;;;5073445;28;20216;-51
2021/05/08 08:06:46;;;;;;;6.03;3.80;;;13.60;95.50;;;;;;5073064;28;20160;-55
2021/05/08 08:09:11;;;;;;;3.47;3.17;;;13.60;96.00;;;;;;5052592;28;20163;-53
2021/05/08 08:11:37;;;;;;;3.30;3.00;;;13.40;95.80;;;;;;5052702;28;20191;-50
2021/05/08 08:14:04;;;;;;;4.70;3.60;;;13.30;96.30;;;;;;5052994;28;20250;-54
2021/05/08 08:16:30;;;;;;;5.40;4.47;;;13.30;95.70;;;;;;5053013;28;20176;-56
2021/05/08 08:18:56;;;;;;;4.10;3.70;;;13.30;96.00;;;;;;5053325;28;20442;-56
2021/05/08 08:21:22;;;;;;;4.03;3.63;;;13.10;96.00;;;;;;5052832;28;20417;-54
2021/05/08 08:23:47;;;;;;;3.90;3.50;;;13.10;96.20;;;;;;5052433;28;20768;-56
2021/05/08 08:26:13;;;;;;;5.20;3.53;;;13.10;96.00;;;;;;5052621;28;20169;-53
2021/05/08 08:28:39;;;;;;;3.37;3.07;;;13.10;95.50;;;;;;5052951;28;20703;-56
2021/05/08 08:31:05;;;;;;;4.90;3.40;;;13.10;95.50;;;;;;5052727;28;20447;-55
2021/05/08 08:33:30;;;;;;;4.63;4.20;;;13.10;95.50;;;;;;5053073;28;20175;-54
2021/05/08 08:35:56;;;;;;;4.20;3.43;;;13.40;95.50;;;;;;5052745;28;20873;-56
2021/05/08 08:38:21;;;;;;;3.80;3.50;;;13.70;95.40;;;;;;5052588;28;20191;-56
2021/05/08 08:40:48;;;;;;;3.70;3.27;;;13.90;94.20;;;;;;5052726;28;20235;-53
2021/05/08 08:43:14;;;;;;;3.43;3.13;;;13.80;94.10;;;;;;5052277;28;20205;-56
2021/05/08 08:45:46;;;;;;;3.43;3.03;;;14.00;94.60;;;;;;5052926;28;20431;-55
2021/05/08 08:48:11;;;;;;;3.60;3.13;;;14.40;93.70;;;;;;5053074;28;20933;-57
2021/05/08 08:50:37;;;;;;;4.53;2.90;;;14.50;92.20;;;;;;5052474;28;20424;-56
2021/05/08 08:53:09;;;;;;;3.40;2.63;;;14.40;92.60;;;;;;5052569;28;20168;-52
2021/05/08 08:55:35;;;;;;;3.60;3.30;;;14.30;92.20;;;;;;5052935;28;20393;-56
2021/05/08 08:58:05;;;;;;;2.70;2.50;;;14.50;91.90;;;;;;5034450;28;20447;-56
2021/05/08 09:00:31;;;;;;;4.20;2.80;;;14.70;90.80;;;;;;5052708;28;20431;-55
2021/05/08 09:02:57;;;;;;;4.47;3.07;;;14.70;91.10;;;;;;5052568;28;20449;-56
2021/05/08 09:05:24;;;;;;;2.90;2.70;;;14.80;90.90;;;;;;5052545;28;20400;-53
2021/05/08 09:07:51;;;;;;;2.93;2.63;;;15.00;91.50;;;;;;5052285;28;20181;-57
2021/05/08 09:10:23;;;;;;;3.83;2.60;;;15.30;92.10;;;;;;5052922;28;20780;-54
2021/05/08 09:12:50;;;;;;;2.70;2.33;;;15.70;91.40;;;;;;5055178;28;20934;-53
2021/05/08 09:15:37;;;;;;;3.23;2.20;;;16.30;90.30;;;;;;5056346;28;20796;-52
2021/05/08 09:18:07;;;;;;;3.87;2.87;;;16.20;88.70;;;;;;5055972;28;20997;-55
2021/05/08 09:20:47;;;;;;;4.40;2.20;;;16.30;86.90;;;;;;5056060;28;20511;-55
2021/05/08 09:23:24;;;;;;;2.03;1.77;;;16.30;83.30;;;;;;5055997;28;20410;-55
2021/05/08 09:26:07;;;;;;;2.20;2.00;;;16.20;82.80;;;;;;5056060;28;20407;-57
2021/05/08 09:28:35;;;;;;;2.50;2.30;;;16.50;86.00;;;;;;5038168;28;20506;-55
2021/05/08 09:31:02;;;;;;;2.10;2.00;;;16.60;82.00;;;;;;5056023;28;20503;-55
2021/05/08 09:33:29;;;;;;;3.60;1.83;;;16.50;83.10;;;;;;5055954;28;20403;-56
2021/05/08 09:35:58;;;;;;;2.83;1.43;;;16.70;80.50;;;;;;5056265;28;20404;-56
2021/05/08 09:38:30;;;;;;;2.03;1.90;;;16.80;80.00;;;;;;5055761;28;20444;-54
2021/05/08 09:40:56;;;;;;;2.93;2.20;;;17.10;79.80;;;;;;5055989;28;20781;-56
2021/05/08 09:43:22;;;;;;;2.30;2.10;;;17.10;80.00;;;;;;5055644;28;20397;-55
2021/05/08 09:45:52;;;;;;;2.50;1.80;;;17.50;79.00;;;;;;5056103;28;20175;-54
2021/05/08 09:48:26;;;;;;;2.80;1.87;;;17.70;76.90;;;;;;5056042;28;20412;-56
2021/05/08 09:50:51;;;;;;;2.47;2.10;;;17.40;75.20;;;;;;5057727;28;20794;-55
2021/05/08 09:53:32;;;;;;;2.47;2.27;;;17.80;75.80;;;;;;5055369;28;20408;-54
2021/05/08 09:55:58;;;;;;;3.73;2.80;;;17.80;76.20;;;;;;5055829;28;20167;-53
2021/05/08 09:58:26;;;;;;;2.53;2.10;;;17.50;76.20;;;;;;5061192;28;20950;-54
2021/05/08 10:00:53;;;;;;;3.30;2.40;;;17.30;77.50;;;;;;5075364;28;20471;-55
2021/05/08 10:03:20;;;;;;;3.23;2.10;;;17.50;78.20;;;;;;5075655;28;20428;-55
2021/05/08 10:06:06;;;;;;;2.10;1.80;;;17.90;78.00;;;;;;5075459;28;20771;-53
2021/05/08 10:08:32;;;;;;;3.20;1.80;;;17.90;75.90;;;;;;5059409;28;20788;-56
2021/05/08 10:10:58;;;;;;;3.70;2.30;;;17.90;75.40;;;;;;5055275;28;20437;-56
2021/05/08 10:13:26;;;;;;;2.33;1.77;;;17.80;75.50;;;;;;5054969;28;20178;-53
2021/05/08 10:15:54;;;;;;;2.60;1.93;;;17.90;77.50;;;;;;5055053;28;20416;-54
2021/05/08 10:18:20;;;;;;;2.03;1.73;;;17.90;76.00;;;;;;5055191;28;20441;-54
2021/05/08 10:20:47;;;;;;;2.13;1.83;;;17.80;73.20;;;;;;5055124;28;20433;-53
2021/05/08 10:23:13;;;;;;;2.17;2.00;;;17.30;71.50;;;;;;5054138;28;20405;-54
2021/05/08 10:25:41;;;;;;;2.10;1.90;;;17.00;71.70;;;;;;5054918;28;20408;-54
2021/05/08 10:28:08;;;;;;;1.97;1.60;;;17.00;73.10;;;;;;5054667;28;20409;-57
2021/05/08 10:30:43;;;;;;;2.23;1.83;;;17.30;73.30;;;;;;5054770;28;20452;-56
2021/05/08 10:33:12;;;;;;;3.50;1.87;;;17.30;75.70;;;;;;5054465;28;20419;-57
2021/05/08 10:35:40;;;;;;;2.27;1.40;;;17.10;70.30;;;;;;5054638;28;20409;-57
2021/05/08 10:38:26;;;;;;;1.93;1.70;;;17.40;72.10;;;;;;5054287;28;20542;-57
2021/05/08 10:40:55;;;;;;;2.43;1.57;;;17.60;69.40;;;;;;5054677;28;20431;-55
2021/05/08 10:43:56;;;;;;;1.57;1.40;;;17.10;70.30;;;;;;5054341;28;20418;-55
2021/05/08 10:46:24;;;;;;;1.90;1.70;;;17.20;71.60;;;;;;5054521;28;20415;-54
2021/05/08 10:49:12;;;;;;;3.30;1.60;;;17.30;72.30;;;;;;5055093;28;20413;-53
2021/05/08 10:51:53;;;;;;;2.30;1.73;;;17.80;72.40;;;;;;5054633;28;20450;-57
2021/05/08 10:54:43;;;;;;;1.73;1.50;;;18.70;67.80;;;;;;5036417;28;20452;-55
2021/05/08 10:57:24;;;;;;;3.27;1.70;;;19.60;64.60;;;;;;5054740;28;20760;-56
2021/05/08 11:00:04;;;;;;;2.97;1.87;;;19.90;65.70;;;;;;5073682;28;20836;-56
2021/05/08 11:02:45;;;;;;;2.70;1.60;;;20.50;60.10;;;;;;5074380;28;20407;-56
2021/05/08 11:05:23;;;;;;;3.17;1.60;;;20.50;64.30;;;;;;5074554;28;20429;-55
2021/05/08 11:07:49;;;;;;;2.03;1.30;;;20.70;62.10;;;;;;5072935;28;20949;-56
2021/05/08 11:10:33;;;;;;;1.30;1.20;;;21.00;59.40;;;;;;5073920;28;20404;-56
2021/05/08 11:13:14;;;;;;;1.80;1.60;;;20.90;60.20;;;;;;5074099;28;20166;-55
2021/05/08 11:15:52;;;;;;;2.73;1.60;;;21.10;59.50;;;;;;5074170;28;20395;-55
2021/05/08 11:18:42;;;;;;;1.33;1.23;;;21.20;59.20;;;;;;5073810;28;21010;-54
2021/05/08 11:21:07;;;;;;;1.53;1.40;;;21.40;57.60;;;;;;5074069;28;20474;-54
2021/05/08 11:23:46;;;;;;;4.10;1.67;;;21.70;56.40;;;;;;5071934;28;20413;-56
2021/05/08 11:28:53;;;;;;;1.73;1.60;;;22.40;54.40;;;;;;5073987;28;20404;-56
2021/05/08 11:31:25;;;;;;;4.30;1.50;;;22.70;52.40;;;;;;5073726;28;20444;-57
2021/05/08 11:33:51;;;;;;;2.33;1.53;;;22.60;50.80;;;;;;5073611;28;20423;-57
2021/05/08 11:36:17;;;;;;;1.30;1.20;;;22.40;48.40;;;;;;5073227;28;20408;-54
2021/05/08 11:38:44;;;;;;;2.20;1.47;;;22.60;50.30;;;;;;5073360;28;20440;-56
2021/05/08 11:41:19;;;;;;;1.50;1.40;;;22.50;48.20;;;;;;5074143;28;20464;-56
2021/05/08 11:43:52;;;;;;;1.77;1.67;;;22.00;49.30;;;;;;5073703;28;20407;-56
2021/05/08 11:46:22;;;;;;;2.43;1.90;;;22.80;49.10;;;;;;5071652;28;20396;-57
2021/05/08 11:48:51;;;;;;;2.40;1.77;;;23.00;47.90;;;;;;5073547;28;20401;-56
2021/05/08 11:51:18;;;;;;;2.73;1.60;;;22.50;51.00;;;;;;5055541;28;20424;-55
2021/05/08 11:53:43;;;;;;;5.00;1.97;;;22.00;50.30;;;;;;5055750;28;20404;-56
2021/05/08 11:56:09;;;;;;;1.63;1.53;;;22.30;52.40;;;;;;5073972;28;20871;-57
2021/05/08 11:58:35;;;;;;;2.17;1.53;;;22.40;52.80;;;;;;5073187;28;20190;-59
2021/05/08 12:01:00;;;;;;;2.90;1.47;;;22.10;51.80;;;;;;5073583;28;20234;-55
2021/05/08 12:03:28;;;;;;;4.30;1.60;;;22.20;52.50;;;;;;5073449;28;20173;-54
2021/05/08 12:05:54;;;;;;;2.03;1.33;;;22.40;49.90;;;;;;5073323;28;20256;-56
2021/05/08 12:08:22;;;;;;;1.73;1.30;;;22.60;50.50;;;;;;5072480;28;20436;-54
2021/05/08 12:10:48;;;;;;;2.33;1.60;;;23.40;52.10;;;;;;5073124;28;20190;-54
2021/05/08 12:13:14;;;;;;;1.77;1.53;;;24.60;49.70;;;;;;5072908;28;20414;-56
2021/05/08 12:15:42;;;;;;;2.27;1.20;;;25.30;48.90;;;;;;5073214;28;20413;-55
2021/05/08 12:18:13;;;;;;;3.63;1.70;;;25.00;47.20;;;;;;5073427;28;20586;-55
2021/05/08 12:20:44;;;;;;;1.77;1.67;;;25.90;47.40;;;;;;5073055;28;20515;-57
2021/05/08 12:23:11;;;;;;;2.60;2.03;;;25.40;47.70;;;;;;5072887;28;20899;-57
2021/05/08 12:25:37;;;;;;;1.63;1.20;;;25.50;47.60;;;;;;5073326;28;20802;-56
2021/05/08 12:28:22;;;;;;;1.50;1.40;;;24.60;46.30;;;;;;5073068;28;20404;-55
2021/05/08 12:30:50;;;;;;;1.53;1.20;;;24.00;49.00;;;;;;5072589;28;20213;-54
2021/05/08 12:33:26;;;;;;;3.40;2.73;;;23.40;49.30;;;;;;5072844;28;20915;-55
2021/05/08 12:35:56;;;;;;;2.77;1.70;;;23.40;47.70;;;;;;5072955;28;20404;-56
2021/05/08 12:38:28;;;;;;;1.50;1.40;;;22.90;48.30;;;;;;5072332;28;20808;-57
2021/05/08 12:40:54;;;;;;;2.20;1.53;;;22.50;48.20;;;;;;5089016;22;20538;-55
2021/05/08 12:43:27;;;;;;;2.87;2.57;;;22.50;48.40;;;;;;5073367;28;20530;-54
2021/05/08 12:46:03;;;;;;;1.50;1.40;;;22.50;48.90;;;;;;5073056;28;20170;-55
2021/05/08 12:48:40;;;;;;;3.63;2.30;;;22.30;49.20;;;;;;5076342;28;20426;-53
2021/05/08 12:51:28;;;;;;;2.97;2.10;;;22.30;51.20;;;;;;5062632;28;20472;-50
2021/05/08 12:54:15;;;;;;;2.13;1.53;;;22.30;51.90;;;;;;5038750;28;20434;-56
2021/05/08 12:56:41;;;;;;;1.93;1.30;;;22.60;50.70;;;;;;5036203;28;20456;-55
2021/05/08 12:59:08;;;;;;;1.70;1.60;;;22.60;49.30;;;;;;5036257;28;20454;-53
2021/05/08 13:01:36;;;;;;;3.80;2.20;;;22.10;51.60;;;;;;5036488;28;20530;-55